BARN66 YWLM-YWLM

Flight info

Callsign BARN66
Flight time 0h 46m
Altitude 39000
Route IFFEY
Aircraft F35/M-SDE3RV/LB1

Departure

Time 2026-04-26 10:06
Airport Newcastle Airport (YWLM)

Arrival

Time 2026-04-26 10:53
Airport Newcastle Airport (YWLM)
Time Latitude Longitude Altitude Speed Heading
2026-04-26 10:06 -32.78611 151.82385 28 ft 30 kts 220°
2026-04-26 10:06 -32.78742 151.82314 27 ft 20 kts 135°
2026-04-26 10:06 -32.79149 151.82867 31 ft 210 kts 130°
2026-04-26 10:06 -32.80329 151.84570 837 ft 309 kts 128°
2026-04-26 10:07 -32.81904 151.86646 1872 ft 374 kts 126°
2026-04-26 10:07 -32.83208 151.89535 3177 ft 412 kts 105°
2026-04-26 10:07 -32.83567 151.92691 4688 ft 377 kts 83°
2026-04-26 10:07 -32.83279 151.95822 6563 ft 385 kts 82°
2026-04-26 10:08 -32.82926 151.99080 8577 ft 458 kts 81°
2026-04-26 10:08 -32.82405 152.03308 11455 ft 583 kts 83°
2026-04-26 10:08 -32.81962 152.08127 15425 ft 564 kts 86°
2026-04-26 10:08 -32.82012 152.12643 19938 ft 535 kts 98°
2026-04-26 10:09 -32.82737 152.17197 23526 ft 589 kts 102°
2026-04-26 10:09 -32.83642 152.21976 25864 ft 593 kts 102°
2026-04-26 10:09 -32.84394 152.26639 28295 ft 618 kts 100°
2026-04-26 10:09 -32.85101 152.31800 29756 ft 605 kts 101°
2026-04-26 10:10 -32.85645 152.35831 30928 ft 395 kts 104°
2026-04-26 10:10 -32.86050 152.38669 31519 ft 345 kts 106°
2026-04-26 10:10 -32.86444 152.41676 31923 ft 393 kts 103°
2026-04-26 10:10 -32.86953 152.45456 32071 ft 534 kts 101°
2026-04-26 10:11 -32.87643 152.50083 32150 ft 591 kts 100°
2026-04-26 10:11 -32.88347 152.54796 31882 ft 650 kts 100°
2026-04-26 10:11 -32.89036 152.60465 31948 ft 719 kts 98°
2026-04-26 10:11 -32.89692 152.66705 31934 ft 802 kts 98°
2026-04-26 10:12 -32.90566 152.73099 32325 ft 724 kts 96°
2026-04-26 10:12 -32.91670 152.78080 32969 ft 493 kts 98°
2026-04-26 10:12 -32.91387 152.81350 31785 ft 337 kts 89°
2026-04-26 10:12 -32.91486 152.83976 31170 ft 294 kts 98°
2026-04-26 10:13 -32.91590 152.85413 31216 ft 243 kts 98°
2026-04-26 10:13 -32.91714 152.87339 31183 ft 227 kts 97°
2026-04-26 10:13 -32.91822 152.89177 31128 ft 217 kts 93°
2026-04-26 10:13 -32.91472 152.90911 30858 ft 223 kts 58°
2026-04-26 10:14 -32.90236 152.92243 29349 ft 277 kts 32°
2026-04-26 10:14 -32.88065 152.93121 27549 ft 414 kts
2026-04-26 10:14 -32.87524 152.91492 23029 ft 354 kts 228°
2026-04-26 10:14 -32.89598 152.88972 21951 ft 494 kts 219°
2026-04-26 10:15 -32.92739 152.86405 22004 ft 588 kts 209°
2026-04-26 10:15 -32.96296 152.83873 21801 ft 586 kts 214°
2026-04-26 10:15 -32.99732 152.81342 21225 ft 587 kts 209°
2026-04-26 10:15 -33.03446 152.79224 21272 ft 595 kts 195°
2026-04-26 10:16 -33.07144 152.78031 21490 ft 494 kts 181°
2026-04-26 10:16 -33.10249 152.77334 21584 ft 423 kts 187°
2026-04-26 10:16 -33.13215 152.76953 21639 ft 470 kts 186°
2026-04-26 10:16 -33.16580 152.76234 21721 ft 463 kts 186°
2026-04-26 10:17 -33.19765 152.75737 21805 ft 487 kts 182°
2026-04-26 10:17 -33.23281 152.75818 22194 ft 486 kts 165°
2026-04-26 10:17 -33.26528 152.76386 22354 ft 492 kts 166°
2026-04-26 10:17 -33.29627 152.77590 22398 ft 423 kts 155°
2026-04-26 10:18 -33.31804 152.79287 23260 ft 339 kts 131°
2026-04-26 10:18 -33.33559 152.81333 22800 ft 388 kts 128°
2026-04-26 10:18 -33.34948 152.84264 22815 ft 410 kts 109°
2026-04-26 10:18 -33.35527 152.87466 22797 ft 378 kts 93°
2026-04-26 10:19 -33.35183 152.90704 22997 ft 433 kts 74°
2026-04-26 10:19 -33.33570 152.94155 23239 ft 501 kts 49°
2026-04-26 10:19 -33.30826 152.96366 23975 ft 445 kts 27°
2026-04-26 10:19 -33.27972 152.97784 23977 ft 406 kts 14°
2026-04-26 10:20 -33.25328 152.98415 23908 ft 371 kts 14°
2026-04-26 10:20 -33.23736 152.98824 23949 ft 379 kts 13°
2026-04-26 10:20 -33.19765 152.99675 24156 ft 488 kts 12°
2026-04-26 10:20 -33.16233 153.00588 24398 ft 520 kts
2026-04-26 10:21 -33.13033 153.01629 24514 ft 437 kts 13°
2026-04-26 10:21 -33.10271 153.02533 24507 ft 413 kts 11°
2026-04-26 10:21 -33.07153 153.03082 24416 ft 497 kts 10°
2026-04-26 10:21 -33.03768 153.03715 24318 ft 469 kts 11°
2026-04-26 10:22 -33.00719 153.04330 24237 ft 422 kts 13°
2026-04-26 10:22 -32.97830 153.05004 24310 ft 424 kts 13°
2026-04-26 10:22 -32.94993 153.05664 24365 ft 412 kts 13°
2026-04-26 10:22 -32.92154 153.06278 24436 ft 414 kts 11°
2026-04-26 10:23 -32.89223 153.06720 24416 ft 452 kts
2026-04-26 10:23 -32.86265 153.07216 24244 ft 420 kts
2026-04-26 10:23 -32.83401 153.07742 24286 ft 401 kts 11°
2026-04-26 10:23 -32.80685 153.08268 24296 ft 399 kts 12°
2026-04-26 10:24 -32.77823 153.08887 24356 ft 430 kts 13°
2026-04-26 10:24 -32.74850 153.09578 24294 ft 416 kts 10°
2026-04-26 10:24 -32.72090 153.10157 24305 ft 410 kts 12°
2026-04-26 10:24 -32.69271 153.10723 24325 ft 428 kts 11°
2026-04-26 10:25 -32.66511 153.11286 24333 ft 401 kts 12°
2026-04-26 10:25 -32.63699 153.11785 24249 ft 390 kts
2026-04-26 10:25 -32.60938 153.11353 24277 ft 424 kts 347°
2026-04-26 10:25 -32.58306 153.09782 24238 ft 344 kts 290°
2026-04-26 10:26 -32.58771 153.07968 23043 ft 221 kts 214°
2026-04-26 10:26 -32.59984 153.07742 20909 ft 183 kts 131°
2026-04-26 10:26 -32.59041 153.08422 16925 ft 325 kts 319°
2026-04-26 10:26 -32.57585 153.05669 17281 ft 466 kts 296°
2026-04-26 10:27 -32.56081 153.01727 18258 ft 570 kts 290°
2026-04-26 10:27 -32.54936 152.97106 20129 ft 592 kts 278°
2026-04-26 10:27 -32.55265 152.92333 21948 ft 588 kts 243°
2026-04-26 10:27 -32.57904 152.88669 23420 ft 583 kts 212°
2026-04-26 10:28 -32.61455 152.87026 24066 ft 492 kts 186°
2026-04-26 10:28 -32.64148 152.86244 24972 ft 346 kts 192°
2026-04-26 10:28 -32.66279 152.85849 25359 ft 286 kts 180°
2026-04-26 10:28 -32.68366 152.85563 24576 ft 332 kts 182°
2026-04-26 10:29 -32.70906 152.85187 24248 ft 408 kts 189°
2026-04-26 10:29 -32.73970 152.84598 24374 ft 473 kts 190°
2026-04-26 10:29 -32.77090 152.83948 24484 ft 425 kts 189°
2026-04-26 10:29 -32.79869 152.83451 24515 ft 405 kts 186°
2026-04-26 10:30 -32.82768 152.82888 24497 ft 430 kts 188°
2026-04-26 10:30 -32.85459 152.82200 24427 ft 412 kts 189°
2026-04-26 10:30 -32.88339 152.81613 24353 ft 404 kts 185°
2026-04-26 10:30 -32.90976 152.81182 24204 ft 368 kts 186°
2026-04-26 10:31 -32.93619 152.80653 24222 ft 405 kts 188°
2026-04-26 10:31 -32.96424 152.79939 24313 ft 424 kts 189°
2026-04-26 10:31 -32.99272 152.79246 24279 ft 382 kts 174°
2026-04-26 10:31 -33.01716 152.78824 24455 ft 347 kts 187°
2026-04-26 10:32 -33.04213 152.78297 24357 ft 397 kts 188°
2026-04-26 10:32 -33.07183 152.77700 24423 ft 429 kts 189°
2026-04-26 10:32 -33.10076 152.77032 24414 ft 428 kts 189°
2026-04-26 10:32 -33.12977 152.76435 24393 ft 418 kts 187°
2026-04-26 10:33 -33.15776 152.75925 24983 ft 388 kts 186°
2026-04-26 10:33 -33.18328 152.75346 24519 ft 367 kts 192°
2026-04-26 10:33 -33.20984 152.74703 24270 ft 424 kts 189°
2026-04-26 10:33 -33.23931 152.74062 24429 ft 415 kts 190°
2026-04-26 10:34 -33.26617 152.73575 24506 ft 372 kts 187°
2026-04-26 10:34 -33.29123 152.73178 24371 ft 366 kts 182°
2026-04-26 10:34 -33.31833 152.73536 24123 ft 432 kts 169°
2026-04-26 10:34 -33.34501 152.74890 24048 ft 389 kts 155°
2026-04-26 10:35 -33.36340 152.76671 24102 ft 269 kts 136°
2026-04-26 10:35 -33.37445 152.78255 23900 ft 250 kts 124°
2026-04-26 10:35 -33.38551 152.80542 23891 ft 399 kts 114°
2026-04-26 10:35 -33.39523 152.84403 24197 ft 558 kts 101°
2026-04-26 10:36 -33.38948 152.88770 24652 ft 541 kts 38°
2026-04-26 10:36 -33.35316 152.90335 24049 ft 583 kts 352°
2026-04-26 10:36 -33.31401 152.88508 22378 ft 616 kts 329°
2026-04-26 10:36 -33.28748 152.84716 21364 ft 613 kts 287°
2026-04-26 10:37 -33.27407 152.79839 20644 ft 622 kts 287°
2026-04-26 10:37 -33.26038 152.74929 19986 ft 623 kts 289°
2026-04-26 10:37 -33.25039 152.71636 19582 ft 623 kts 290°
2026-04-26 10:37 -33.22996 152.65236 18901 ft 623 kts 291°
2026-04-26 10:38 -33.21368 152.60434 18322 ft 625 kts 292°
2026-04-26 10:38 -33.20222 152.57215 17887 ft 626 kts 293°
2026-04-26 10:38 -33.18405 152.52475 17297 ft 627 kts 295°
2026-04-26 10:38 -33.16419 152.47714 16394 ft 619 kts 296°
2026-04-26 10:39 -33.14594 152.43351 15670 ft 564 kts 296°
2026-04-26 10:39 -33.12900 152.39276 15187 ft 536 kts 296°
2026-04-26 10:39 -33.11256 152.35367 14706 ft 518 kts 296°
2026-04-26 10:39 -33.09644 152.31590 14246 ft 504 kts 297°
2026-04-26 10:40 -33.08074 152.27961 13779 ft 493 kts 297°
2026-04-26 10:40 -33.06483 152.24336 13293 ft 484 kts 297°
2026-04-26 10:40 -33.04939 152.20870 12845 ft 477 kts 297°
2026-04-26 10:40 -33.03371 152.17405 12414 ft 471 kts 298°
2026-04-26 10:41 -33.01855 152.14142 11994 ft 449 kts 301°
2026-04-26 10:41 -33.00275 152.11040 10646 ft 423 kts 301°
2026-04-26 10:41 -32.98502 152.08330 9194 ft 408 kts 320°
2026-04-26 10:41 -32.96099 152.06899 8099 ft 391 kts 357°
2026-04-26 10:42 -32.93527 152.07705 7173 ft 381 kts 27°
2026-04-26 10:42 -32.91223 152.09216 6729 ft 377 kts 29°
2026-04-26 10:42 -32.88936 152.10716 6422 ft 376 kts 29°
2026-04-26 10:42 -32.86649 152.12224 6108 ft 375 kts 29°
2026-04-26 10:43 -32.84369 152.13750 5812 ft 374 kts 30°
2026-04-26 10:43 -32.82107 152.15287 5512 ft 372 kts 30°
2026-04-26 10:43 -32.79864 152.16834 5227 ft 370 kts 30°
2026-04-26 10:43 -32.77655 152.18379 4948 ft 369 kts 31°
2026-04-26 10:44 -32.75647 152.18508 6099 ft 356 kts 294°
2026-04-26 10:44 -32.76459 152.15780 1699 ft 431 kts 239°
2026-04-26 10:44 -32.78185 152.13055 866 ft 395 kts 229°
2026-04-26 10:44 -32.79185 152.10312 465 ft 361 kts 271°
2026-04-26 10:45 -32.78715 152.07442 357 ft 355 kts 277°
2026-04-26 10:45 -32.79137 152.04550 550 ft 361 kts 250°
2026-04-26 10:45 -32.79972 152.01725 701 ft 367 kts 251°
2026-04-26 10:45 -32.80730 151.98869 752 ft 360 kts 253°
2026-04-26 10:46 -32.81473 151.96004 706 ft 360 kts 253°
2026-04-26 10:46 -32.82262 151.93219 653 ft 360 kts 248°
2026-04-26 10:46 -32.83216 151.90534 597 ft 358 kts 245°
2026-04-26 10:46 -32.84361 151.87937 530 ft 357 kts 238°
2026-04-26 10:47 -32.85703 151.85447 455 ft 355 kts 236°
2026-04-26 10:47 -32.87247 151.83193 499 ft 354 kts 221°
2026-04-26 10:47 -32.89324 151.81561 680 ft 362 kts 206°
2026-04-26 10:47 -32.91457 151.80044 594 ft 360 kts 221°
2026-04-26 10:48 -32.91970 151.77387 872 ft 364 kts 303°
2026-04-26 10:48 -32.89919 151.76149 697 ft 348 kts 355°
2026-04-26 10:48 -32.87563 151.76512 807 ft 342 kts 27°
2026-04-26 10:48 -32.85247 151.77294 1234 ft 348 kts
2026-04-26 10:49 -32.82855 151.77457 1350 ft 351 kts
2026-04-26 10:49 -32.80343 151.77397 1382 ft 348 kts
2026-04-26 10:49 -32.77938 151.77744 1402 ft 347 kts 16°
2026-04-26 10:49 -32.75889 151.79158 1483 ft 343 kts 48°
2026-04-26 10:50 -32.74823 151.81646 1763 ft 311 kts 105°
2026-04-26 10:50 -32.76081 151.82456 1412 ft 331 kts 221°
2026-04-26 10:50 -32.78876 151.82826 174 ft 346 kts 127°
2026-04-26 10:50 -32.80470 151.85006 260 ft 348 kts 133°
2026-04-26 10:51 -32.82593 151.84799 1176 ft 368 kts 242°
2026-04-26 10:51 -32.80016 151.80736 965 ft 415 kts 319°
2026-04-26 10:51 -32.77641 151.78286 976 ft 404 kts 331°
2026-04-26 10:52 -32.76200 151.78878 1056 ft 175 kts 111°
2026-04-26 10:52 -32.77266 151.80164 814 ft 281 kts 130°
2026-04-26 10:52 -32.78504 151.81966 178 ft 245 kts 130°
2026-04-26 10:52 -32.79294 151.83073 30 ft 126 kts 131°
2026-04-26 10:53 -32.79690 151.83627 28 ft 68 kts 130°
2026-04-26 10:53 -32.79819 151.83914 32 ft 21 kts 75°
2026-04-26 10:53 -32.79713 151.83958 31 ft 21 kts 308°
2026-04-26 10:54 -32.79482 151.83620 28 ft 32 kts 311°
2026-04-26 10:54 -32.79370 151.83478 28 ft 16 kts 347°
2026-04-26 10:54 -32.79273 151.83550 31 ft 24 kts 41°
2026-04-26 10:54 -32.79141 151.83682 31 ft 15 kts 47°
2026-04-26 10:55 -32.79067 151.83726 31 ft 11 kts 340°
2026-04-26 10:55 -32.79018 151.83702 31 ft 7 kts 17°
2026-04-26 10:55 -32.78983 151.83741 31 ft 7 kts 55°
2026-04-26 10:55 -32.78967 151.83768 31 ft 1 kts 54°
2026-04-26 10:56 -32.78963 151.83775 31 ft 1 kts 58°